Time;durP1;ratioP1;P1;durP2;ratioP2;P2;SDS_P1;SDS_P2;PMS_P1;PMS_P2;Temp;Humidity;BMP_temperature;BMP_pressure;BME280_temperature;BME280_humidity;BME280_pressure;Samples;Min_cycle;Max_cycle;Signal;HPM_P1;HPM_P2
2022/10/02 05:06:11;;;;;;;23.13;4.35;;;;;;;11.88;100.00;101367.75;5037631;28;20049;-76
2022/10/02 05:08:56;;;;;;;22.10;3.88;;;;;;;11.89;100.00;101369.41;5043419;28;20556;-78
2022/10/02 05:11:43;;;;;;;18.30;3.80;;;;;;;11.86;100.00;101367.28;5024668;28;20024;-78
2022/10/02 05:14:54;;;;;;;13.25;3.95;;;;;;;11.88;100.00;101366.91;5082776;22;20060;-76
2022/10/02 05:17:41;;;;;;;23.15;5.38;;;;;;;11.89;100.00;101371.38;5055343;28;20024;-78
2022/10/02 05:20:17;;;;;;;10.10;3.70;;;;;;;11.87;100.00;101366.13;5060381;28;20036;-78
2022/10/02 05:22:54;;;;;;;22.67;5.10;;;;;;;11.86;100.00;101358.06;5062038;28;20029;-79
2022/10/02 05:25:20;;;;;;;18.40;5.78;;;;;;;11.84;100.00;101364.03;5061236;28;20559;-78
2022/10/02 05:28:13;;;;;;;15.60;4.72;;;;;;;11.82;100.00;101371.22;5058351;28;20104;-79
2022/10/02 05:30:52;;;;;;;12.60;3.47;;;;;;;11.76;100.00;101359.50;5058041;28;20039;-78
2022/10/02 05:33:28;;;;;;;15.10;4.75;;;;;;;11.78;100.00;101371.97;5060413;28;20036;-77
2022/10/02 05:35:53;;;;;;;13.18;3.42;;;;;;;11.82;100.00;101382.44;5062501;28;20226;-76
2022/10/02 05:38:28;;;;;;;16.27;4.63;;;;;;;11.78;100.00;101387.97;5062950;28;20099;-78
2022/10/02 05:41:03;;;;;;;18.52;4.25;;;;;;;11.82;100.00;101400.06;5061684;28;20029;-78
2022/10/02 05:43:46;;;;;;;16.20;4.30;;;;;;;11.78;100.00;101405.66;5059474;28;20047;-79
2022/10/02 05:46:20;;;;;;;13.98;3.83;;;;;;;11.83;100.00;101401.72;5043073;28;20020;-78
2022/10/02 05:48:59;;;;;;;10.57;4.25;;;;;;;11.86;100.00;101412.16;5039970;28;20487;-78
2022/10/02 05:51:45;;;;;;;18.58;4.65;;;;;;;11.85;100.00;101413.38;5064133;28;20705;-78
2022/10/02 05:54:44;;;;;;;16.48;3.33;;;;;;;11.91;100.00;101423.13;5059883;28;20047;-79
2022/10/02 05:57:20;;;;;;;16.25;3.95;;;;;;;11.82;100.00;101421.72;5062148;28;20036;-76
2022/10/02 05:59:52;;;;;;;18.42;4.28;;;;;;;11.75;100.00;101428.81;5055114;28;20107;-78
2022/10/02 06:02:34;;;;;;;26.90;5.55;;;;;;;11.75;100.00;101428.00;5057034;28;20043;-78
2022/10/02 06:05:06;;;;;;;14.02;4.07;;;;;;;11.79;100.00;101428.88;5062264;28;20124;-78
2022/10/02 06:07:32;;;;;;;13.13;3.88;;;;;;;11.80;100.00;101424.88;5049722;28;20032;-79
2022/10/02 06:10:12;;;;;;;15.10;4.90;;;;;;;11.84;100.00;101430.56;5050133;28;20029;-79
2022/10/02 06:13:03;;;;;;;16.67;3.78;;;;;;;11.85;100.00;101421.78;5060993;28;20072;-79
2022/10/02 06:15:38;;;;;;;17.17;5.10;;;;;;;11.85;100.00;101432.16;5041058;28;20494;-79
2022/10/02 06:18:13;;;;;;;17.70;3.90;;;;;;;11.88;100.00;101445.47;5043702;28;20047;-78
2022/10/02 06:20:50;;;;;;;23.05;5.15;;;;;;;11.89;100.00;101447.94;5032739;28;20029;-78
2022/10/02 06:23:22;;;;;;;18.55;4.50;;;;;;;11.95;100.00;101443.63;5043537;28;20055;-78
2022/10/02 06:25:52;;;;;;;23.10;4.65;;;;;;;11.93;100.00;101446.00;5049193;28;20074;-78
2022/10/02 06:28:26;;;;;;;15.02;3.28;;;;;;;11.95;100.00;101446.44;5045404;28;20519;-78
2022/10/02 06:31:03;;;;;;;25.25;5.65;;;;;;;12.03;100.00;101449.38;5045158;28;20405;-79
2022/10/02 06:33:31;;;;;;;14.68;4.45;;;;;;;11.98;100.00;101442.88;5037458;28;20028;-79
2022/10/02 06:36:13;;;;;;;23.77;5.20;;;;;;;12.07;100.00;101450.25;5042861;28;20500;-78
2022/10/02 06:38:57;;;;;;;13.00;3.92;;;;;;;12.06;100.00;101443.81;5030205;28;20037;-77
2022/10/02 06:41:46;;;;;;;16.90;4.25;;;;;;;12.04;100.00;101448.16;5037819;28;20039;-78
2022/10/02 06:44:26;;;;;;;20.50;5.03;;;;;;;12.09;100.00;101450.69;5047216;28;20029;-77
2022/10/02 06:47:23;;;;;;;26.73;5.55;;;;;;;12.11;100.00;101465.94;5036111;28;20537;-77
2022/10/02 06:50:14;;;;;;;23.25;4.43;;;;;;;12.22;100.00;101471.75;5037313;28;20048;-78
2022/10/02 06:53:01;;;;;;;23.42;4.35;;;;;;;12.27;100.00;101460.22;5037545;28;20460;-77
2022/10/02 06:55:58;;;;;;;10.45;3.28;;;;;;;12.28;100.00;101463.81;5034822;28;20112;-78
2022/10/02 06:58:29;;;;;;;23.70;4.80;;;;;;;12.33;100.00;101475.56;5035289;28;20514;-78
2022/10/02 07:01:00;;;;;;;17.48;4.50;;;;;;;12.32;100.00;101468.31;5034861;28;20041;-76
2022/10/02 07:04:06;;;;;;;16.95;4.10;;;;;;;12.38;100.00;101466.81;5032918;28;20074;-76
2022/10/02 07:06:45;;;;;;;11.55;2.85;;;;;;;12.33;100.00;101469.13;5038267;28;20133;-78
2022/10/02 07:09:43;;;;;;;15.65;4.45;;;;;;;12.28;100.00;101475.84;5039397;28;20029;-78
2022/10/02 07:12:36;;;;;;;20.40;3.88;;;;;;;12.29;100.00;101474.69;5033789;28;20118;-75
2022/10/02 07:15:20;;;;;;;9.65;3.97;;;;;;;12.25;100.00;101478.59;5042166;28;20067;-78
2022/10/02 07:18:08;;;;;;;13.95;3.67;;;;;;;12.29;100.00;101490.69;5049510;28;20040;-78
2022/10/02 07:21:16;;;;;;;24.45;4.40;;;;;;;12.34;100.00;101494.00;5037937;28;20471;-78
2022/10/02 07:23:52;;;;;;;26.52;5.00;;;;;;;12.41;100.00;101502.53;4984374;28;20064;-76
2022/10/02 07:26:26;;;;;;;18.48;4.57;;;;;;;12.45;100.00;101499.00;5055165;28;20037;-77
2022/10/02 07:29:16;;;;;;;23.58;5.15;;;;;;;12.46;100.00;101506.22;5034681;28;20514;-77
2022/10/02 07:32:09;;;;;;;17.33;3.83;;;;;;;12.41;100.00;101496.94;5055961;28;20043;-78
2022/10/02 07:34:53;;;;;;;16.05;3.33;;;;;;;12.39;100.00;101506.91;5055457;28;20123;-74
2022/10/02 07:37:35;;;;;;;14.70;4.25;;;;;;;12.47;100.00;101507.84;5055199;28;20482;-77
2022/10/02 07:40:20;;;;;;;14.33;2.90;;;;;;;12.42;100.00;101520.22;5052484;28;20056;-76
2022/10/02 07:43:03;;;;;;;14.30;3.15;;;;;;;12.48;100.00;101524.34;5033990;28;20046;-78
2022/10/02 07:45:40;;;;;;;12.77;3.50;;;;;;;12.51;100.00;101526.38;5038251;28;21585;-77
2022/10/02 07:48:45;;;;;;;16.25;4.82;;;;;;;12.59;100.00;101524.50;5056915;28;20515;-78
2022/10/02 07:54:22;;;;;;;14.50;3.53;;;;;;;12.57;100.00;101524.88;5053374;28;20174;-75
2022/10/02 07:56:51;;;;;;;21.30;4.07;;;;;;;12.64;100.00;101529.00;5040322;28;20079;-77
2022/10/02 07:59:17;;;;;;;13.27;3.75;;;;;;;12.60;100.00;101524.13;5054042;28;20475;-78
2022/10/02 08:01:45;;;;;;;15.43;3.45;;;;;;;12.64;100.00;101535.41;5055459;28;20082;-76
2022/10/02 08:04:17;;;;;;;13.90;4.03;;;;;;;12.65;100.00;101534.25;5054076;28;20414;-79
2022/10/02 08:06:45;;;;;;;14.05;3.47;;;;;;;12.64;100.00;101532.59;5058939;28;20040;-77
2022/10/02 08:09:21;;;;;;;12.77;3.80;;;;;;;12.71;100.00;101535.53;5049170;28;20044;-77
2022/10/02 08:11:58;;;;;;;14.63;3.40;;;;;;;12.71;100.00;101535.53;5052133;28;20020;-78
2022/10/02 08:14:39;;;;;;;8.93;3.13;;;;;;;12.74;100.00;101542.41;5051455;28;20068;-78
2022/10/02 08:17:28;;;;;;;12.57;3.53;;;;;;;12.70;100.00;101547.97;5036844;28;20075;-75
2022/10/02 08:19:58;;;;;;;10.38;3.13;;;;;;;12.78;100.00;101546.09;5051560;28;20495;-77
2022/10/02 08:22:27;;;;;;;18.20;3.70;;;;;;;12.82;100.00;101553.38;5049680;28;20032;-78
2022/10/02 08:25:18;;;;;;;18.90;3.78;;;;;;;12.85;100.00;101562.25;5027539;28;20109;-77
2022/10/02 08:27:58;;;;;;;16.45;5.07;;;;;;;12.89;100.00;101561.09;5038291;28;20028;-77
2022/10/02 08:30:24;;;;;;;19.00;5.40;;;;;;;12.97;100.00;101553.59;5057321;28;20025;-76
2022/10/02 08:32:49;;;;;;;21.02;5.00;;;;;;;13.09;100.00;101561.81;5052700;28;20396;-78
2022/10/02 08:35:18;;;;;;;20.83;4.82;;;;;;;13.33;100.00;101562.59;5054291;28;20024;-78
2022/10/02 08:38:11;;;;;;;16.00;3.65;;;;;;;13.31;100.00;101567.78;5048874;28;20487;-77
2022/10/02 08:41:00;;;;;;;22.52;3.95;;;;;;;13.29;100.00;101575.78;5030199;28;20032;-79
2022/10/02 08:44:08;;;;;;;15.85;4.13;;;;;;;13.32;100.00;101583.44;5029711;28;20190;-78
2022/10/02 08:46:55;;;;;;;19.23;4.30;;;;;;;13.40;100.00;101593.59;5049418;28;20037;-78
2022/10/02 08:49:51;;;;;;;30.88;3.92;;;;;;;13.36;100.00;101599.16;5060254;28;20115;-78
2022/10/02 08:52:38;;;;;;;16.00;3.67;;;;;;;13.40;100.00;101593.59;5027499;28;20127;-78
2022/10/02 08:55:25;;;;;;;18.85;3.53;;;;;;;13.51;100.00;101603.00;5062584;28;20025;-78
2022/10/02 08:58:26;;;;;;;12.57;3.03;;;;;;;13.45;100.00;101600.91;5058652;28;20028;-78
2022/10/02 09:01:16;;;;;;;17.05;5.10;;;;;;;13.30;100.00;101600.72;5075505;28;20033;-78
2022/10/02 09:04:30;;;;;;;14.10;2.95;;;;;;;13.54;100.00;101605.06;5066435;28;20461;-78
2022/10/02 09:07:09;;;;;;;20.70;4.95;;;;;;;13.52;100.00;101613.06;5052465;28;20032;-78
2022/10/02 09:09:59;;;;;;;22.38;5.90;;;;;;;13.64;100.00;101617.66;5058335;28;20383;-77
2022/10/02 09:12:30;;;;;;;17.92;4.07;;;;;;;13.71;100.00;101609.31;5041216;28;20049;-77
2022/10/02 09:14:59;;;;;;;14.35;2.63;;;;;;;13.67;100.00;101625.31;5049539;28;20029;-78
2022/10/02 09:17:44;;;;;;;19.05;3.25;;;;;;;13.76;100.00;101623.03;5047316;28;20472;-78
2022/10/02 09:20:38;;;;;;;15.55;3.13;;;;;;;13.75;100.00;101618.59;5057068;28;20055;-77
2022/10/02 09:23:35;;;;;;;12.35;3.92;;;;;;;13.91;100.00;101624.03;5036483;28;20037;-79
2022/10/02 09:26:09;;;;;;;16.42;2.40;;;;;;;13.86;100.00;101626.38;5047378;28;20037;-78
2022/10/02 09:28:56;;;;;;;17.88;3.92;;;;;;;13.87;99.49;101623.19;5054656;28;20467;-75
2022/10/02 09:32:01;;;;;;;13.18;4.43;;;;;;;14.05;98.07;101631.03;5043326;28;20033;-78
2022/10/02 09:34:41;;;;;;;17.58;2.95;;;;;;;13.94;97.08;101634.53;5045617;28;20031;-78
2022/10/02 09:37:31;;;;;;;14.60;3.65;;;;;;;13.95;96.04;101632.53;5048554;28;20064;-77
2022/10/02 09:40:18;;;;;;;12.23;2.30;;;;;;;14.11;95.79;101635.94;5041068;28;20507;-77
2022/10/02 09:43:00;;;;;;;18.58;3.65;;;;;;;14.26;95.30;101639.72;5049659;28;20484;-78
2022/10/02 09:45:38;;;;;;;18.60;3.72;;;;;;;14.18;95.05;101643.66;5046842;28;20379;-78
2022/10/02 09:48:22;;;;;;;15.68;3.25;;;;;;;14.14;92.98;101643.59;5044078;28;20045;-77
2022/10/02 09:51:04;;;;;;;23.35;4.30;;;;;;;14.31;93.46;101630.94;5047304;28;20259;-77
2022/10/02 09:53:38;;;;;;;13.93;3.35;;;;;;;14.25;93.08;101632.47;5043596;28;20044;-77
2022/10/02 09:56:33;;;;;;;15.00;2.72;;;;;;;14.23;92.83;101640.50;5051236;28;20037;-78
2022/10/02 09:59:17;;;;;;;16.13;2.53;;;;;;;14.41;90.98;101651.97;5037842;28;20025;-78
2022/10/02 10:02:18;;;;;;;13.45;3.38;;;;;;;14.20;91.82;101656.16;5034660;28;20032;-76
2022/10/02 10:05:07;;;;;;;17.77;3.38;;;;;;;14.19;89.23;101645.28;5043625;28;20465;-78
2022/10/02 10:07:54;;;;;;;17.08;2.75;;;;;;;14.42;88.12;101664.88;5032261;28;20479;-78
2022/10/02 10:10:48;;;;;;;19.90;4.10;;;;;;;14.29;90.59;101669.13;5040827;28;20523;-76
2022/10/02 10:13:38;;;;;;;17.77;3.05;;;;;;;14.38;91.31;101664.81;5031608;28;21274;-76
2022/10/02 10:16:53;;;;;;;22.10;3.25;;;;;;;14.53;89.48;101676.25;5037645;28;20025;-76
2022/10/02 10:19:24;;;;;;;21.42;3.85;;;;;;;14.64;89.60;101672.34;4980115;28;20102;-77
2022/10/02 10:22:04;;;;;;;10.00;2.70;;;;;;;14.52;88.12;101680.25;5038249;28;20047;-77
2022/10/02 10:24:42;;;;;;;17.13;2.97;;;;;;;14.41;90.64;101685.75;5033341;28;20483;-77
2022/10/02 10:27:46;;;;;;;14.10;3.05;;;;;;;14.52;89.61;101680.25;5038197;28;20033;-77
2022/10/02 10:30:42;;;;;;;15.75;3.95;;;;;;;14.51;88.38;101689.91;5037950;28;20439;-77
2022/10/02 10:33:27;;;;;;;13.25;2.83;;;;;;;14.57;88.84;101682.75;5046615;28;20055;-78
2022/10/02 10:38:31;;;;;;;15.85;2.67;;;;;;;14.56;88.61;101683.94;5039727;28;20024;-78
2022/10/02 10:39:28;;;;;;;14.48;2.97;;;;;;;14.68;87.57;101694.16;5031936;28;20037;-77
2022/10/02 10:42:05;;;;;;;15.10;3.33;;;;;;;14.88;86.98;101683.47;5030439;28;20029;-77
2022/10/02 10:44:49;;;;;;;10.40;2.40;;;;;;;14.98;86.75;101683.56;5039009;28;20037;-78
2022/10/02 10:47:23;;;;;;;13.77;3.08;;;;;;;15.25;86.28;101695.47;5038951;28;20024;-77
2022/10/02 10:50:13;;;;;;;20.73;4.18;;;;;;;15.30;85.04;101699.13;5041402;28;20033;-77
2022/10/02 10:52:59;;;;;;;11.60;2.90;;;;;;;15.68;83.42;101700.63;5056490;28;20040;-77
2022/10/02 10:56:16;;;;;;;20.55;3.83;;;;;;;15.71;83.95;101699.03;5044529;28;20032;-77
2022/10/02 10:59:26;;;;;;;14.27;3.25;;;;;;;15.80;83.60;101708.00;5010175;28;20079;-77
2022/10/02 11:02:01;;;;;;;12.23;2.80;;;;;;;15.84;80.43;101711.66;5032919;28;20025;-75
2022/10/02 11:05:06;;;;;;;18.88;2.90;;;;;;;15.65;83.32;101719.16;5038418;28;20431;-77
2022/10/02 11:07:35;;;;;;;11.98;2.55;;;;;;;15.70;83.38;101715.16;5041068;28;20328;-77
2022/10/02 11:10:36;;;;;;;17.25;4.25;;;;;;;16.26;80.46;101713.88;5045590;28;20044;-77
2022/10/02 11:13:20;;;;;;;12.90;2.92;;;;;;;15.67;81.98;101713.13;5042538;28;20156;-77
2022/10/02 11:16:12;;;;;;;17.23;3.38;;;;;;;15.55;81.36;101727.53;5065894;28;20482;-78
2022/10/02 11:18:46;;;;;;;15.65;3.28;;;;;;;15.35;82.64;101724.19;5054749;28;20516;-77
2022/10/02 11:21:44;;;;;;;22.10;3.58;;;;;;;15.24;83.83;101733.34;5068201;28;20364;-77
2022/10/02 11:24:12;;;;;;;17.02;3.55;;;;;;;15.17;85.37;101738.91;5058298;28;20119;-77
2022/10/02 11:26:59;;;;;;;23.73;3.53;;;;;;;15.12;85.19;101744.13;5057082;28;20021;-77
2022/10/02 11:29:46;;;;;;;9.43;3.05;;;;;;;15.14;85.59;101745.34;5039882;28;21189;-77
2022/10/02 11:32:41;;;;;;;17.25;4.40;;;;;;;15.11;86.70;101748.94;5056515;28;20418;-77
2022/10/02 11:35:31;;;;;;;14.73;3.60;;;;;;;14.97;88.17;101751.63;5044698;28;20037;-77
2022/10/02 11:38:25;;;;;;;13.57;2.78;;;;;;;14.95;86.48;101745.56;5058858;28;20637;-77
2022/10/02 11:41:15;;;;;;;16.88;3.35;;;;;;;15.27;85.68;101753.53;5060843;28;20387;-76
2022/10/02 11:44:15;;;;;;;16.80;3.03;;;;;;;15.50;85.09;101765.41;5061812;28;20481;-75
2022/10/02 11:47:08;;;;;;;14.77;3.55;;;;;;;15.64;83.04;101757.06;5053307;28;20055;-76
2022/10/02 11:49:33;;;;;;;17.70;3.22;;;;;;;15.77;81.75;101757.59;5052185;28;20383;-77
2022/10/02 11:52:29;;;;;;;15.88;3.30;;;;;;;15.85;79.36;101756.44;5059243;28;20104;-77
2022/10/02 11:55:21;;;;;;;15.45;3.10;;;;;;;15.61;79.56;101763.47;5058297;28;20551;-77
2022/10/02 11:58:13;;;;;;;19.33;3.83;;;;;;;15.59;81.39;101771.50;5050021;28;20037;-79
2022/10/02 12:01:09;;;;;;;21.45;2.97;;;;;;;15.86;78.51;101762.88;5045056;28;20384;-78
2022/10/02 12:03:51;;;;;;;14.60;2.50;;;;;;;15.99;77.83;101767.00;5061803;28;20036;-75
2022/10/02 12:06:43;;;;;;;14.93;3.15;;;;;;;16.35;77.39;101764.34;5059365;28;20082;-76
2022/10/02 12:10:02;;;;;;;13.15;2.30;;;;;;;16.24;77.07;101772.78;5060063;28;20025;-77
2022/10/02 12:12:43;;;;;;;21.48;3.38;;;;;;;16.02;74.91;101776.69;5053806;28;20450;-76
2022/10/02 12:15:20;;;;;;;10.23;2.75;;;;;;;15.99;72.34;101783.94;5040978;28;20039;-76
2022/10/02 12:17:53;;;;;;;11.90;2.53;;;;;;;16.25;74.92;101784.88;5063314;28;20434;-76
2022/10/02 12:29:01;;;;;;;12.80;2.40;;;;;;;16.37;75.16;101784.56;5055513;28;20538;-76
2022/10/02 12:32:09;;;;;;;16.73;3.78;;;;;;;16.37;74.57;101781.72;5033062;28;20056;-76
2022/10/02 12:34:47;;;;;;;10.43;2.30;;;;;;;16.30;75.72;101790.19;5059189;28;20431;-76
2022/10/02 12:37:42;;;;;;;13.40;3.03;;;;;;;16.04;74.06;101786.41;5039116;28;20082;-78
2022/10/02 12:40:15;;;;;;;14.30;2.83;;;;;;;16.44;73.20;101789.44;5053942;28;20056;-76
2022/10/02 12:43:27;;;;;;;14.98;2.67;;;;;;;16.43;72.99;101799.91;5058733;28;20021;-76
2022/10/02 12:46:22;;;;;;;11.55;2.00;;;;;;;16.34;74.04;101795.81;5063229;28;20036;-76
2022/10/02 12:49:13;;;;;;;13.75;2.20;;;;;;;16.23;75.28;101801.41;5046765;28;20081;-76
2022/10/02 12:51:53;;;;;;;11.77;2.22;;;;;;;15.85;76.07;101809.25;5048777;28;20028;-75
2022/10/02 12:54:37;;;;;;;16.40;3.28;;;;;;;15.74;77.49;101800.69;5043827;28;20055;-75
2022/10/02 13:00:16;;;;;;;16.58;2.53;;;;;;;15.61;77.34;101811.44;5066181;28;20089;-75
2022/10/02 13:03:10;;;;;;;8.88;2.63;;;;;;;15.83;78.80;101806.81;5050365;28;20029;-75
2022/10/02 13:05:58;;;;;;;12.77;3.63;;;;;;;15.99;77.13;101820.63;5058391;28;20506;-75
2022/10/02 13:08:38;;;;;;;15.52;2.85;;;;;;;15.93;73.60;101819.38;5046777;28;20324;-76
2022/10/02 13:11:28;;;;;;;13.48;2.30;;;;;;;15.88;74.10;101816.94;5048069;28;20031;-76
2022/10/02 13:14:36;;;;;;;13.80;2.88;;;;;;;16.15;74.70;101826.00;5059432;28;20036;-77
2022/10/02 13:17:24;;;;;;;10.32;2.05;;;;;;;16.10;73.62;101819.91;5027969;28;20052;-75
2022/10/02 13:19:59;;;;;;;12.25;2.10;;;;;;;15.91;73.99;101821.78;5066085;28;20030;-75
2022/10/02 13:22:39;;;;;;;10.77;2.08;;;;;;;15.99;75.22;101826.28;5066036;28;20484;-75
2022/10/02 13:25:16;;;;;;;11.35;2.38;;;;;;;15.82;76.24;101824.94;5064773;28;20079;-75
2022/10/02 13:27:59;;;;;;;10.07;1.63;;;;;;;15.84;75.36;101827.38;5041527;28;20133;-75
2022/10/02 13:30:27;;;;;;;;;;;;;;;15.86;76.36;101822.16;5067775;28;20029;-75
2022/10/02 13:32:55;;;;;;;5.97;1.83;;;;;;;15.83;74.28;101831.41;5060685;28;20435;-75
2022/10/02 13:35:29;;;;;;;10.57;2.17;;;;;;;15.79;75.57;101833.38;5043759;28;20360;-76
2022/10/02 13:37:57;;;;;;;13.48;2.28;;;;;;;15.72;73.60;101830.50;5065312;28;20418;-75
2022/10/02 13:40:29;;;;;;;11.23;3.13;;;;;;;15.67;74.10;101830.84;5070259;28;20021;-75
2022/10/02 13:43:03;;;;;;;;;;;;;;;15.65;74.01;101831.25;5062724;28;20103;-75
2022/10/02 13:45:37;;;;;;;;;;;;;;;15.67;74.47;101828.03;5060139;28;19917;-75
2022/10/02 13:48:43;;;;;;;12.07;2.10;;;;;;;15.68;74.49;101840.94;5055980;28;19912;-77
2022/10/02 13:51:30;;;;;;;12.73;2.22;;;;;;;15.82;71.61;101843.91;5038383;28;20033;-75
2022/10/02 13:53:56;;;;;;;9.80;2.40;;;;;;;15.88;72.59;101841.53;5058221;28;20510;-77
2022/10/02 13:56:49;;;;;;;20.55;2.97;;;;;;;15.93;71.78;101853.25;5063462;28;20028;-76
2022/10/02 13:59:30;;;;;;;15.00;2.38;;;;;;;15.87;74.63;101849.19;5059741;28;20032;-76
2022/10/02 14:02:14;;;;;;;10.90;2.20;;;;;;;15.79;73.24;101847.50;5060337;28;20051;-76
2022/10/02 14:04:54;;;;;;;12.88;2.85;;;;;;;15.79;72.95;101853.97;5041340;28;20040;-77
2022/10/02 14:07:28;;;;;;;9.40;2.92;;;;;;;15.71;73.94;101852.25;5051569;28;20033;-77
2022/10/02 14:10:22;;;;;;;11.80;2.33;;;;;;;15.82;75.70;101852.38;5055897;28;20040;-76
2022/10/02 14:13:30;;;;;;;10.73;2.63;;;;;;;15.93;72.14;101850.44;5026559;28;20053;-76
2022/10/02 14:16:29;;;;;;;8.82;1.88;;;;;;;15.94;71.53;101854.91;5054242;28;20032;-76
2022/10/02 14:18:58;;;;;;;8.15;1.92;;;;;;;16.05;74.36;101861.44;5051574;28;20040;-77
2022/10/02 14:21:34;;;;;;;18.70;3.38;;;;;;;16.05;72.54;101861.44;5062831;28;20020;-77
2022/10/02 14:24:20;;;;;;;14.57;2.15;;;;;;;15.96;74.57;101869.44;5058737;28;20060;-77
2022/10/02 14:27:02;;;;;;;13.95;3.38;;;;;;;15.97;73.00;101864.59;5063963;28;20503;-76
2022/10/02 14:29:55;;;;;;;10.15;3.05;;;;;;;15.93;74.93;101883.53;5064764;28;20439;-77
2022/10/02 14:32:23;;;;;;;;;;;;;;;16.09;73.57;101877.63;5041378;28;20387;-77
2022/10/02 14:35:02;;;;;;;18.63;4.03;;;;;;;16.01;74.61;101886.00;5064560;28;19919;-76
2022/10/02 14:37:45;;;;;;;18.95;2.58;;;;;;;16.01;74.94;101883.19;5061839;28;20446;-77
2022/10/02 14:40:16;;;;;;;10.32;1.95;;;;;;;15.92;72.57;101888.38;5064158;28;20502;-77
2022/10/02 14:43:03;;;;;;;9.00;1.90;;;;;;;15.82;75.49;101897.53;5063116;28;20028;-76
2022/10/02 14:45:34;;;;;;;13.40;2.05;;;;;;;15.87;73.33;101904.84;5054714;28;20031;-77
2022/10/02 14:48:27;;;;;;;16.35;2.33;;;;;;;15.83;75.24;101904.81;5059325;28;20035;-76
2022/10/02 14:51:10;;;;;;;;;;;;;;;15.89;72.45;101894.78;5047258;28;20016;-76
2022/10/02 14:53:57;;;;;;;9.77;2.78;;;;;;;15.87;72.36;101897.19;5045402;28;19920;-76
2022/10/02 14:56:46;;;;;;;14.55;2.35;;;;;;;15.96;70.65;101896.84;5043079;28;20388;-76
2022/10/02 14:59:27;;;;;;;13.02;2.28;;;;;;;15.81;72.05;101907.19;5059456;28;20475;-77
2022/10/02 15:02:07;;;;;;;13.93;2.95;;;;;;;15.84;71.88;101909.25;5047762;28;20032;-76
2022/10/02 15:04:35;;;;;;;10.30;2.60;;;;;;;15.79;72.36;101909.59;5062629;28;20026;-76
2022/10/02 15:07:11;;;;;;;12.65;2.70;;;;;;;15.79;72.09;101918.06;5065744;28;20055;-77
2022/10/02 15:10:04;;;;;;;13.18;2.13;;;;;;;15.72;71.78;101926.47;5057171;28;20049;-77
2022/10/02 15:12:49;;;;;;;9.25;2.38;;;;;;;15.78;73.27;101919.28;5053499;28;20041;-75
2022/10/02 15:15:14;;;;;;;11.02;2.67;;;;;;;15.81;72.35;101929.78;5049441;28;20045;-76
2022/10/02 15:17:56;;;;;;;15.77;2.70;;;;;;;15.64;72.00;101925.56;5053168;28;20064;-76
2022/10/02 15:20:32;;;;;;;10.95;2.00;;;;;;;15.63;73.28;101924.75;5035238;28;20047;-76
2022/10/02 15:22:59;;;;;;;10.88;2.72;;;;;;;15.64;74.27;101934.03;5036486;28;20062;-76
2022/10/02 15:25:45;;;;;;;8.93;2.30;;;;;;;15.62;72.95;101934.44;5050116;28;20274;-76
2022/10/02 15:28:42;;;;;;;19.15;2.88;;;;;;;15.59;74.79;101938.00;5036077;28;20530;-76
2022/10/02 15:31:31;;;;;;;13.32;3.17;;;;;;;15.51;73.73;101939.13;5053087;28;20050;-76
2022/10/02 15:34:05;;;;;;;9.45;2.60;;;;;;;15.56;76.16;101938.81;5050785;28;20115;-76
2022/10/02 15:37:00;;;;;;;17.13;3.35;;;;;;;15.57;75.48;101948.88;5052323;28;20674;-76
2022/10/02 15:39:31;;;;;;;10.32;2.15;;;;;;;15.54;76.18;101951.69;5060099;28;20527;-77
2022/10/02 15:42:05;;;;;;;11.07;2.10;;;;;;;15.56;75.74;101955.72;5054585;28;20025;-76
2022/10/02 15:44:54;;;;;;;15.13;2.10;;;;;;;15.48;74.53;101962.50;5056229;28;20028;-76
2022/10/02 15:47:34;;;;;;;14.02;2.63;;;;;;;15.33;75.43;101969.16;5057204;28;20774;-76
2022/10/02 15:50:12;;;;;;;14.10;2.85;;;;;;;15.42;75.99;101969.66;5039886;28;20032;-77
2022/10/02 15:52:44;;;;;;;11.90;2.85;;;;;;;15.40;77.06;101980.53;5038838;28;20032;-75
2022/10/02 15:55:26;;;;;;;;;;;;;;;15.44;77.54;101979.38;5055521;28;20294;-76
2022/10/02 15:57:57;;;;;;;10.23;2.15;;;;;;;15.38;76.13;101982.91;5035125;28;20279;-76
2022/10/02 16:00:26;;;;;;;12.63;3.25;;;;;;;15.32;78.04;101976.00;5039194;28;20035;-76
2022/10/02 16:03:13;;;;;;;11.18;1.88;;;;;;;15.16;77.62;101981.84;5056499;28;20066;-76
2022/10/02 16:05:52;;;;;;;15.43;2.83;;;;;;;14.99;79.01;101986.06;5046266;28;20085;-76
2022/10/02 16:09:02;;;;;;;10.73;2.20;;;;;;;14.97;78.46;102002.53;5058626;28;20031;-76
2022/10/02 16:11:30;;;;;;;15.85;3.08;;;;;;;14.92;79.10;101997.22;5043217;28;20093;-77
2022/10/02 16:14:14;;;;;;;13.50;3.33;;;;;;;14.87;78.44;102000.38;5033028;28;20055;-77
2022/10/02 16:16:39;;;;;;;22.02;2.90;;;;;;;14.86;79.29;102008.00;5049911;28;20028;-76
2022/10/02 16:19:14;;;;;;;11.07;2.30;;;;;;;14.80;79.23;102013.16;5054423;28;20036;-76
2022/10/02 16:22:08;;;;;;;13.43;3.25;;;;;;;14.60;78.36;102006.81;5051123;28;20119;-76
2022/10/02 16:24:56;;;;;;;19.60;3.00;;;;;;;14.58;81.17;102014.00;5053080;28;20032;-76
2022/10/02 16:27:26;;;;;;;12.65;2.50;;;;;;;14.69;82.50;102017.81;5052176;28;20685;-76
2022/10/02 16:30:04;;;;;;;13.50;2.75;;;;;;;14.67;82.38;102025.81;5047909;28;20032;-76
2022/10/02 16:33:00;;;;;;;12.23;2.58;;;;;;;14.59;83.33;102035.38;5047736;28;20539;-77
2022/10/02 16:35:59;;;;;;;11.10;2.25;;;;;;;14.50;81.12;102034.78;5051176;28;20020;-76
2022/10/02 16:38:40;;;;;;;8.70;1.80;;;;;;;14.50;84.00;102037.59;5051836;28;20028;-75
2022/10/02 16:41:27;;;;;;;11.00;2.80;;;;;;;14.35;80.20;102045.78;5044019;28;20035;-75
2022/10/02 16:44:14;;;;;;;14.90;2.25;;;;;;;14.39;83.30;102049.50;5047307;28;20028;-77
2022/10/02 16:46:57;;;;;;;10.05;2.65;;;;;;;14.41;84.59;102058.38;5052371;28;20070;-76
2022/10/02 16:49:52;;;;;;;7.28;2.38;;;;;;;14.28;83.35;102053.31;5052832;28;20510;-76
2022/10/02 16:52:37;;;;;;;9.25;2.78;;;;;;;14.35;84.72;102059.06;5060401;28;20744;-76
2022/10/02 16:55:37;;;;;;;10.07;3.15;;;;;;;14.31;84.71;102064.63;5054617;28;20044;-76
2022/10/02 16:58:49;;;;;;;15.82;3.00;;;;;;;14.11;83.69;102068.69;5054678;28;20031;-75
2022/10/02 17:01:25;;;;;;;16.08;2.88;;;;;;;14.00;85.82;102072.13;5019363;28;20052;-76
2022/10/02 17:04:14;;;;;;;16.60;3.00;;;;;;;14.13;85.02;102069.16;5046724;28;20376;-77
2022/10/02 17:06:51;;;;;;;13.23;3.50;;;;;;;14.06;84.40;102077.44;5054793;28;20042;-75
2022/10/02 17:09:24;;;;;;;15.00;4.20;;;;;;;13.89;85.23;102079.53;5053530;28;20032;-77
2022/10/02 17:11:57;;;;;;;11.88;2.83;;;;;;;14.02;86.93;102086.63;5057715;28;20033;-76
2022/10/02 17:14:50;;;;;;;20.45;4.97;;;;;;;13.99;86.29;102093.00;5053412;28;20168;-76
2022/10/02 17:17:28;;;;;;;10.73;3.45;;;;;;;13.94;86.35;102096.13;5054569;28;20516;-76
2022/10/02 17:19:59;;;;;;;9.13;2.10;;;;;;;13.93;85.67;102100.13;5054644;28;20041;-76
2022/10/02 17:22:51;;;;;;;12.00;2.83;;;;;;;13.88;87.19;102108.88;5046796;28;20535;-77
2022/10/02 17:25:34;;;;;;;14.95;3.83;;;;;;;13.87;86.93;102120.50;5056282;28;20021;-76
2022/10/02 17:28:10;;;;;;;14.82;3.80;;;;;;;13.85;87.25;102120.88;5054994;28;20090;-76
2022/10/02 17:31:07;;;;;;;17.15;4.05;;;;;;;13.81;88.13;102117.97;5051460;28;20110;-75
2022/10/02 17:33:50;;;;;;;17.73;3.55;;;;;;;13.80;87.41;102118.34;5024637;28;20092;-76
2022/10/02 17:36:46;;;;;;;17.40;3.15;;;;;;;13.71;89.20;102126.19;5054891;28;20146;-75
2022/10/02 17:39:33;;;;;;;11.85;3.00;;;;;;;13.68;87.75;102135.38;5057794;28;20055;-76
2022/10/02 17:42:40;;;;;;;18.65;6.53;;;;;;;13.50;88.26;102138.59;5039704;28;20021;-75
2022/10/02 17:45:19;;;;;;;20.75;4.18;;;;;;;13.71;88.58;102154.34;5031691;28;20041;-74
2022/10/02 17:48:04;;;;;;;13.13;2.95;;;;;;;13.73;88.18;102151.97;5053775;28;20515;-73
2022/10/02 17:50:57;;;;;;;11.48;3.08;;;;;;;13.61;87.12;102153.72;5058513;28;20472;-74
2022/10/02 17:57:05;;;;;;;15.00;3.30;;;;;;;13.67;88.31;102156.25;5055309;28;20039;-76